Flight Track Log - Related Links

Times and Time Zones

All times are in EDT time to prevent confusion due to time zone crossing. See the UCA3596 flight status page for this flight to view local times or setup timezone preferences in your user account.

Time Position Orientation Groundspeed Altitude Reporting Facility
EDT Latitude Longitude Course Direction KTS MPH feet Rate Location/Type
Sat 03:13:03 PM 42.1739 -75.9697 211° Southwest 257 296 2,900  Level New York Center
Sat 03:14:03 PM 42.1347 -76.0114 218° Southwest 225 259 3,900 1,200 Climbing New York Center
Sat 03:15:03 PM 42.0889 -76.0581 217° Southwest 196 226 5,300 1,500 Climbing New York Center
Sat 03:16:03 PM 42.0431 -76.1019 215° Southwest 196 226 6,900 1,400 Climbing New York Center
Sat 03:17:03 PM 41.9975 -76.1456 215° Southwest 201 231 8,100 1,200 Climbing New York Center
Sat 03:18:00 PM 41.7782 -76.1839 211° Southwest  Level Estimated
Sat 03:18:03 PM 41.9539 -76.1867 215° Southwest 201 231 9,300  Level New York Center
Sat 03:19:03 PM 41.9081 -76.2331 217° Southwest 201 231 10,300 1,200 Climbing New York Center
Sat 03:20:03 PM 41.8539 -76.2817 214° Southwest 207 238 11,700 1,250 Climbing New York Center
Sat 03:21:03 PM 41.8078 -76.3308 218° Southwest 212 244 12,800 1,100 Climbing New York Center
Sat 03:22:03 PM 41.7556 -76.3764 213° Southwest 217 250 13,900 1,100 Climbing New York Center
Sat 03:23:03 PM 41.7119 -76.4200 217° Southwest 222 255 15,000 1,050 Climbing New York Center
Sat 03:24:03 PM 41.6617 -76.4683 216° Southwest 222 255 16,000 500 Climbing New York Center
Sat 03:25:03 PM 41.6006 -76.5269 216° Southwest 236 272 16,000  Level New York Center
Sat 03:26:03 PM 41.5392 -76.5883 217° Southwest 262 302 16,000  Level New York Center
Sat 03:27:03 PM 41.4803 -76.6414 214° Southwest 284 327 16,000  Level New York Center
Sat 03:28:03 PM 41.4103 -76.7100 216° Southwest 284 327 16,000  Level New York Center
Sat 03:29:03 PM 41.3469 -76.7681 215° Southwest 284 327 16,000  Level New York Center
Sat 03:30:03 PM 41.2728 -76.7917 193° South 279 321 16,000  Level New York Center
Sat 03:31:03 PM 41.1972 -76.8044 187° South 271 312 16,000  Level New York Center
Sat 03:32:03 PM 41.1236 -76.8197 189° South 276 318 16,000  Level New York Center
Sat 03:33:03 PM 41.0456 -76.8350 188° South 276 318 16,000  Level New York Center
Sat 03:34:03 PM 40.9700 -76.8500 189° South 281 323 16,000  Level New York Center
Sat 03:35:03 PM 40.8964 -76.8628 187° South 281 323 16,000  Level New York Center
Sat 03:36:03 PM 40.8206 -76.8781 189° South 276 318 16,000  Level New York Center
Sat 03:37:03 PM 40.7444 -76.8986 192° South 281 323 16,000  Level New York Center
Sat 03:38:03 PM 40.6722 -76.9222 194° South 281 323 16,000  Level New York Center
Sat 03:39:03 PM 40.5961 -76.9456 193° South 286 329 16,000  Level New York Center
Sat 03:40:03 PM 40.5219 -76.9689 193° South 286 329 16,000  Level New York Center
Sat 03:41:03 PM 40.4478 -76.9922 193° South 286 329 16,000 -522 Level New York Center
Sat 03:43:07 PM 40.2833 -77.0333 191° South 293 337 14,400 -885 Descending Potomac TRACON
Sat 03:45:07 PM 40.1333 -77.0833 194° South 291 335 12,400 -1,000 Descending Potomac TRACON
Sat 03:47:07 PM 39.9833 -77.1333 194° South 278 320 10,400 -1,000 Descending Potomac TRACON
Sat 03:48:07 PM 39.9000 -77.1833 205° Southwest 278 320 9,400 -950 Descending Potomac TRACON
Sat 03:49:07 PM 39.8333 -77.2167 201° Southwest 278 320 8,500 -796 Descending Potomac TRACON
Sat 03:51:08 PM 39.7000 -77.3000 206° Southwest 269 310 7,000 -497 Descending Potomac TRACON
Sat 03:52:08 PM 39.6333 -77.3333 201° Southwest 259 298 7,000 -400 Level Potomac TRACON
Sat 03:53:08 PM 39.5500 -77.3500 189° South 269 310 6,200 -694 Descending Potomac TRACON
Sat 03:54:09 PM 39.4833 -77.3500 180° South 258 297 5,600 -645 Descending Potomac TRACON
Sat 03:55:09 PM 39.4167 -77.3500 180° South 256 295 4,900 -700 Descending Potomac TRACON
Sat 03:56:09 PM 39.3333 -77.3500 180° South 256 295 4,200 -446 Descending Potomac TRACON
Sat 03:57:10 PM 39.2667 -77.3500 180° South 251 289 4,000 -99 Descending Potomac TRACON
Sat 03:58:10 PM 39.2000 -77.3500 180° South 245 282 4,000  Level Potomac TRACON
Sat 03:59:10 PM 39.1333 -77.3667 191° South 241 277 4,000  Level Potomac TRACON
Sat 04:00:04 PM 39.0667 -77.3500 169° South 241 277 4,000  Level Potomac TRACON
Sat 04:01:04 PM 39.0167 -77.3500 180° South 244 281 4,000  Level Potomac TRACON
Sat 04:02:04 PM 38.9500 -77.3500 180° South 247 284 4,000  Level Potomac TRACON
Sat 04:03:04 PM 38.8667 -77.3500 180° South 245 282 4,000 -50 Level Potomac TRACON
Sat 04:04:04 PM 38.8000 -77.3667 191° South 245 282 3,900 -500 Descending Potomac TRACON
Sat 04:05:04 PM 38.7333 -77.3667 180° South 240 276 3,000 -474 Descending Potomac TRACON
Sat 04:05:58 PM 38.6833 -77.3833 195° South 225 259 3,000  Level Potomac TRACON
Sat 04:06:58 PM 38.7167 -77.4333 311° West 214 246 3,000  Level Potomac TRACON
Sat 04:07:58 PM 38.7667 -77.4333 360° North 187 215 3,000 -248 Level Potomac TRACON
Sat 04:08:59 PM 38.8167 -77.4333 360° North 186 214 2,500 -700 Descending Potomac TRACON
Sat 04:09:58 PM 38.8667 -77.4333 360° North 161 185 1,600 -789 Descending Potomac TRACON
Sat 04:10:53 PM 38.9000 -77.4333 360° North 119 137 1,000 -655 Descending Potomac TRACON
Sat 04:12:00 PM 38.9333 -77.4500 349° North  Level FlightAware Approximate
Sat 04:19:00 PM 38.9474 -77.4599 349° North  Level Estimated
Sat 04:20:00 PM 38.9474 -77.4599 349° North  Level Estimated

Login

Don't have an account? Register now (free) for customized features, flight alerts, and more!